sensor_id;sensor_type;location;lat;lon;timestamp;pressure;altitude;pressure_sealevel;temperature;humidity
75991;BME280;64673;52.276;10.560;2023-09-18T00:00:08;100217.59;;;17.97;85.00
75991;BME280;64673;52.276;10.560;2023-09-18T00:02:37;100213.28;;;17.87;86.31
75991;BME280;64673;52.276;10.560;2023-09-18T00:05:03;100212.66;;;17.82;85.44
75991;BME280;64673;52.276;10.560;2023-09-18T00:07:29;100198.72;;;17.75;85.72
75991;BME280;64673;52.276;10.560;2023-09-18T00:09:54;100217.00;;;17.83;85.95
75991;BME280;64673;52.276;10.560;2023-09-18T00:12:19;100208.94;;;17.95;84.70
75991;BME280;64673;52.276;10.560;2023-09-18T00:14:48;100226.63;;;17.89;85.86
75991;BME280;64673;52.276;10.560;2023-09-18T00:17:14;100227.91;;;17.83;85.63
75991;BME280;64673;52.276;10.560;2023-09-18T00:19:39;100216.16;;;17.91;85.92
75991;BME280;64673;52.276;10.560;2023-09-18T00:22:04;100211.50;;;18.00;85.23
75991;BME280;64673;52.276;10.560;2023-09-18T00:24:30;100211.09;;;17.72;86.17
75991;BME280;64673;52.276;10.560;2023-09-18T00:26:55;100208.69;;;17.71;86.62
75991;BME280;64673;52.276;10.560;2023-09-18T00:29:20;100216.53;;;17.72;86.74
75991;BME280;64673;52.276;10.560;2023-09-18T00:31:46;100206.72;;;17.80;85.38
75991;BME280;64673;52.276;10.560;2023-09-18T00:34:11;100185.50;;;17.94;83.41
75991;BME280;64673;52.276;10.560;2023-09-18T00:36:36;100189.50;;;17.97;83.34
75991;BME280;64673;52.276;10.560;2023-09-18T00:39:02;100182.66;;;17.82;84.71
75991;BME280;64673;52.276;10.560;2023-09-18T00:41:28;100176.91;;;17.75;84.73
75991;BME280;64673;52.276;10.560;2023-09-18T00:43:53;100177.88;;;17.79;84.44
75991;BME280;64673;52.276;10.560;2023-09-18T00:46:19;100177.19;;;17.82;83.54
75991;BME280;64673;52.276;10.560;2023-09-18T00:48:45;100172.84;;;17.81;83.76
75991;BME280;64673;52.276;10.560;2023-09-18T00:51:12;100166.13;;;17.87;83.12
75991;BME280;64673;52.276;10.560;2023-09-18T00:53:38;100157.44;;;17.85;82.93
75991;BME280;64673;52.276;10.560;2023-09-18T00:56:03;100156.03;;;17.79;83.89
75991;BME280;64673;52.276;10.560;2023-09-18T00:58:29;100147.84;;;17.79;83.20
75991;BME280;64673;52.276;10.560;2023-09-18T01:00:55;100149.44;;;17.80;83.05
75991;BME280;64673;52.276;10.560;2023-09-18T01:03:21;100140.47;;;17.79;83.37
75991;BME280;64673;52.276;10.560;2023-09-18T01:05:46;100136.47;;;17.77;83.49
75991;BME280;64673;52.276;10.560;2023-09-18T01:08:12;100138.41;;;17.76;83.53
75991;BME280;64673;52.276;10.560;2023-09-18T01:10:47;100127.53;;;17.68;83.32
75991;BME280;64673;52.276;10.560;2023-09-18T01:13:18;100127.06;;;17.66;83.77
75991;BME280;64673;52.276;10.560;2023-09-18T01:16:02;100120.13;;;17.60;84.34
75991;BME280;64673;52.276;10.560;2023-09-18T01:18:28;100113.91;;;17.50;84.86
75991;BME280;64673;52.276;10.560;2023-09-18T01:20:53;100111.50;;;17.58;83.88
75991;BME280;64673;52.276;10.560;2023-09-18T01:23:18;100091.41;;;17.62;83.41
75991;BME280;64673;52.276;10.560;2023-09-18T01:25:43;100086.28;;;17.61;83.83
75991;BME280;64673;52.276;10.560;2023-09-18T01:28:09;100105.41;;;17.52;84.42
75991;BME280;64673;52.276;10.560;2023-09-18T01:30:34;100101.22;;;17.54;84.69
75991;BME280;64673;52.276;10.560;2023-09-18T01:33:01;100093.91;;;17.46;85.29
75991;BME280;64673;52.276;10.560;2023-09-18T01:35:28;100094.53;;;17.43;85.12
75991;BME280;64673;52.276;10.560;2023-09-18T01:38:01;100089.69;;;17.49;85.09
75991;BME280;64673;52.276;10.560;2023-09-18T01:40:28;100087.31;;;17.47;84.89
75991;BME280;64673;52.276;10.560;2023-09-18T01:42:54;100080.59;;;17.45;85.46
75991;BME280;64673;52.276;10.560;2023-09-18T01:45:19;100081.38;;;17.45;85.00
75991;BME280;64673;52.276;10.560;2023-09-18T01:47:46;100079.41;;;17.54;84.00
75991;BME280;64673;52.276;10.560;2023-09-18T01:50:11;100071.88;;;17.51;84.35
75991;BME280;64673;52.276;10.560;2023-09-18T01:52:37;100064.00;;;17.59;83.85
75991;BME280;64673;52.276;10.560;2023-09-18T01:55:03;100066.25;;;17.56;84.54
75991;BME280;64673;52.276;10.560;2023-09-18T01:57:29;100071.84;;;17.60;83.55
75991;BME280;64673;52.276;10.560;2023-09-18T01:59:55;100060.81;;;17.56;83.72
75991;BME280;64673;52.276;10.560;2023-09-18T02:02:20;100064.66;;;17.55;84.02
75991;BME280;64673;52.276;10.560;2023-09-18T02:04:45;100062.25;;;17.63;83.29
75991;BME280;64673;52.276;10.560;2023-09-18T02:07:11;100062.25;;;17.54;84.69
75991;BME280;64673;52.276;10.560;2023-09-18T02:09:36;100060.31;;;17.63;83.14
75991;BME280;64673;52.276;10.560;2023-09-18T02:12:02;100050.22;;;17.64;83.86
75991;BME280;64673;52.276;10.560;2023-09-18T02:14:28;100048.78;;;17.58;84.82
75991;BME280;64673;52.276;10.560;2023-09-18T02:16:56;100043.34;;;17.49;85.20
75991;BME280;64673;52.276;10.560;2023-09-18T02:19:21;100031.47;;;17.53;84.61
75991;BME280;64673;52.276;10.560;2023-09-18T02:21:46;100033.72;;;17.51;84.72
75991;BME280;64673;52.276;10.560;2023-09-18T02:24:12;100031.41;;;17.33;86.53
75991;BME280;64673;52.276;10.560;2023-09-18T02:26:37;100037.97;;;17.32;87.33
75991;BME280;64673;52.276;10.560;2023-09-18T02:29:07;100039.13;;;17.22;87.91
75991;BME280;64673;52.276;10.560;2023-09-18T02:31:33;100039.66;;;17.15;88.17
75991;BME280;64673;52.276;10.560;2023-09-18T02:33:58;100035.66;;;17.13;88.07
75991;BME280;64673;52.276;10.560;2023-09-18T02:36:23;100033.41;;;17.15;87.96
75991;BME280;64673;52.276;10.560;2023-09-18T02:38:49;100036.28;;;17.10;88.55
75991;BME280;64673;52.276;10.560;2023-09-18T02:41:14;100026.19;;;17.10;89.10
75991;BME280;64673;52.276;10.560;2023-09-18T02:43:39;100027.59;;;17.25;86.82
75991;BME280;64673;52.276;10.560;2023-09-18T02:46:05;100024.09;;;17.16;88.51
75991;BME280;64673;52.276;10.560;2023-09-18T02:48:32;100030.19;;;17.13;88.12
75991;BME280;64673;52.276;10.560;2023-09-18T02:51:01;100027.63;;;17.08;88.96
75991;BME280;64673;52.276;10.560;2023-09-18T02:53:27;100014.22;;;17.03;88.84
75991;BME280;64673;52.276;10.560;2023-09-18T02:55:54;100016.09;;;17.11;88.30
75991;BME280;64673;52.276;10.560;2023-09-18T02:58:20;99994.19;;;16.99;88.91
75991;BME280;64673;52.276;10.560;2023-09-18T03:00:48;100003.28;;;17.11;88.11
75991;BME280;64673;52.276;10.560;2023-09-18T03:03:14;99999.47;;;17.04;89.26
75991;BME280;64673;52.276;10.560;2023-09-18T03:05:40;99995.63;;;17.05;89.56
75991;BME280;64673;52.276;10.560;2023-09-18T03:08:06;99993.22;;;17.03;89.40
75991;BME280;64673;52.276;10.560;2023-09-18T03:10:39;99980.56;;;16.99;89.09
75991;BME280;64673;52.276;10.560;2023-09-18T03:13:06;99992.97;;;17.17;87.55
75991;BME280;64673;52.276;10.560;2023-09-18T03:15:32;99984.03;;;17.08;88.69
75991;BME280;64673;52.276;10.560;2023-09-18T03:17:58;99982.34;;;16.95;89.86
75991;BME280;64673;52.276;10.560;2023-09-18T03:20:27;99979.31;;;16.88;90.61
75991;BME280;64673;52.276;10.560;2023-09-18T03:22:55;99988.31;;;16.79;91.58
75991;BME280;64673;52.276;10.560;2023-09-18T03:25:21;99983.50;;;16.76;91.29
75991;BME280;64673;52.276;10.560;2023-09-18T03:27:47;99974.97;;;16.87;90.68
75991;BME280;64673;52.276;10.560;2023-09-18T03:30:13;99954.53;;;16.72;90.48
75991;BME280;64673;52.276;10.560;2023-09-18T03:32:42;99973.91;;;16.70;91.26
75991;BME280;64673;52.276;10.560;2023-09-18T03:35:08;99965.88;;;16.74;91.54
75991;BME280;64673;52.276;10.560;2023-09-18T03:37:53;99954.53;;;16.55;91.83
75991;BME280;64673;52.276;10.560;2023-09-18T03:40:21;99964.31;;;16.64;91.96
75991;BME280;64673;52.276;10.560;2023-09-18T03:42:47;99946.66;;;16.79;90.26
75991;BME280;64673;52.276;10.560;2023-09-18T03:45:14;99945.38;;;16.76;91.42
75991;BME280;64673;52.276;10.560;2023-09-18T03:47:41;99943.28;;;16.82;90.51
75991;BME280;64673;52.276;10.560;2023-09-18T03:50:07;99945.03;;;16.87;90.28
75991;BME280;64673;52.276;10.560;2023-09-18T03:52:32;99932.88;;;16.75;91.25
75991;BME280;64673;52.276;10.560;2023-09-18T03:54:58;99922.66;;;16.55;92.90
75991;BME280;64673;52.276;10.560;2023-09-18T03:57:23;99922.19;;;16.70;90.91
75991;BME280;64673;52.276;10.560;2023-09-18T03:59:49;99921.34;;;16.78;90.69
75991;BME280;64673;52.276;10.560;2023-09-18T04:02:14;99920.22;;;16.79;90.60
75991;BME280;64673;52.276;10.560;2023-09-18T04:04:39;99915.91;;;16.78;90.48
75991;BME280;64673;52.276;10.560;2023-09-18T04:07:05;99924.06;;;16.78;90.69
75991;BME280;64673;52.276;10.560;2023-09-18T04:09:31;99912.06;;;16.79;90.03
75991;BME280;64673;52.276;10.560;2023-09-18T04:11:56;99909.66;;;16.78;91.00
75991;BME280;64673;52.276;10.560;2023-09-18T04:14:22;99901.97;;;16.80;91.39
75991;BME280;64673;52.276;10.560;2023-09-18T04:16:48;99896.84;;;16.78;91.09
75991;BME280;64673;52.276;10.560;2023-09-18T04:19:13;99891.25;;;16.75;90.92
75991;BME280;64673;52.276;10.560;2023-09-18T04:21:38;99889.50;;;16.70;91.19
75991;BME280;64673;52.276;10.560;2023-09-18T04:24:04;99882.06;;;16.33;93.65
75991;BME280;64673;52.276;10.560;2023-09-18T04:26:29;99869.75;;;16.27;93.66
75991;BME280;64673;52.276;10.560;2023-09-18T04:28:56;99872.78;;;16.34;93.65
75991;BME280;64673;52.276;10.560;2023-09-18T04:31:22;99866.59;;;16.16;94.82
75991;BME280;64673;52.276;10.560;2023-09-18T04:33:48;99864.53;;;16.04;95.20
75991;BME280;64673;52.276;10.560;2023-09-18T04:36:13;99850.94;;;15.96;95.03
75991;BME280;64673;52.276;10.560;2023-09-18T04:38:38;99844.84;;;16.07;95.33
75991;BME280;64673;52.276;10.560;2023-09-18T04:41:04;99841.97;;;15.95;95.63
75991;BME280;64673;52.276;10.560;2023-09-18T04:43:29;99846.63;;;15.95;95.88
75991;BME280;64673;52.276;10.560;2023-09-18T04:45:55;99839.59;;;15.85;96.75
75991;BME280;64673;52.276;10.560;2023-09-18T04:48:21;99840.88;;;15.96;95.24
75991;BME280;64673;52.276;10.560;2023-09-18T04:50:46;99837.28;;;16.22;93.78
75991;BME280;64673;52.276;10.560;2023-09-18T04:53:13;99830.25;;;16.21;93.72
75991;BME280;64673;52.276;10.560;2023-09-18T04:55:38;99830.44;;;16.07;94.83
75991;BME280;64673;52.276;10.560;2023-09-18T04:58:03;99820.66;;;16.15;94.50
75991;BME280;64673;52.276;10.560;2023-09-18T05:00:30;99825.03;;;15.98;95.20
75991;BME280;64673;52.276;10.560;2023-09-18T05:02:57;99819.09;;;15.96;95.96
75991;BME280;64673;52.276;10.560;2023-09-18T05:05:25;99819.44;;;15.86;95.64
75991;BME280;64673;52.276;10.560;2023-09-18T05:07:50;99811.91;;;15.83;95.97
75991;BME280;64673;52.276;10.560;2023-09-18T05:10:16;99815.09;;;15.94;95.74
75991;BME280;64673;52.276;10.560;2023-09-18T05:12:41;99809.97;;;15.92;96.41
75991;BME280;64673;52.276;10.560;2023-09-18T05:15:07;99801.81;;;15.92;96.15
75991;BME280;64673;52.276;10.560;2023-09-18T05:17:45;99803.28;;;15.98;96.28
75991;BME280;64673;52.276;10.560;2023-09-18T05:20:20;99800.34;;;16.03;96.71
75991;BME280;64673;52.276;10.560;2023-09-18T05:22:49;99796.28;;;16.27;94.86
75991;BME280;64673;52.276;10.560;2023-09-18T05:25:15;99784.84;;;16.51;93.33
75991;BME280;64673;52.276;10.560;2023-09-18T05:27:40;99777.41;;;16.68;92.26
75991;BME280;64673;52.276;10.560;2023-09-18T05:30:13;99780.69;;;16.82;92.28
75991;BME280;64673;52.276;10.560;2023-09-18T05:32:40;99770.38;;;16.88;91.56
75991;BME280;64673;52.276;10.560;2023-09-18T05:35:06;99764.69;;;17.02;90.88
75991;BME280;64673;52.276;10.560;2023-09-18T05:37:32;99762.97;;;17.18;90.94
75991;BME280;64673;52.276;10.560;2023-09-18T05:39:58;99764.56;;;17.19;92.39
75991;BME280;64673;52.276;10.560;2023-09-18T05:42:23;99771.84;;;17.27;92.61
75991;BME280;64673;52.276;10.560;2023-09-18T05:44:48;99759.50;;;17.30;91.58
75991;BME280;64673;52.276;10.560;2023-09-18T05:47:14;99753.31;;;17.41;91.27
75991;BME280;64673;52.276;10.560;2023-09-18T05:49:39;99751.28;;;17.50;90.60
75991;BME280;64673;52.276;10.560;2023-09-18T05:52:05;99747.53;;;17.64;90.10
75991;BME280;64673;52.276;10.560;2023-09-18T05:54:30;99738.81;;;17.82;89.20
75991;BME280;64673;52.276;10.560;2023-09-18T05:56:55;99740.91;;;17.98;89.61
75991;BME280;64673;52.276;10.560;2023-09-18T05:59:21;99750.59;;;18.19;87.75
75991;BME280;64673;52.276;10.560;2023-09-18T06:01:46;99740.25;;;18.37;89.10
75991;BME280;64673;52.276;10.560;2023-09-18T06:04:13;99764.53;;;18.63;89.18
75991;BME280;64673;52.276;10.560;2023-09-18T06:06:38;99777.72;;;18.85;88.95
75991;BME280;64673;52.276;10.560;2023-09-18T06:09:04;99779.50;;;19.06;87.72
75991;BME280;64673;52.276;10.560;2023-09-18T06:11:29;99780.38;;;19.10;86.38
75991;BME280;64673;52.276;10.560;2023-09-18T06:13:55;99780.66;;;19.32;83.51
75991;BME280;64673;52.276;10.560;2023-09-18T06:16:20;99778.69;;;19.45;82.82
75991;BME280;64673;52.276;10.560;2023-09-18T06:18:46;99789.28;;;19.47;82.21
75991;BME280;64673;52.276;10.560;2023-09-18T06:21:11;99778.69;;;19.45;81.63
75991;BME280;64673;52.276;10.560;2023-09-18T06:23:36;99780.63;;;19.57;81.29
75991;BME280;64673;52.276;10.560;2023-09-18T06:26:02;99784.16;;;19.57;80.87
75991;BME280;64673;52.276;10.560;2023-09-18T06:28:29;99783.69;;;19.55;80.30
75991;BME280;64673;52.276;10.560;2023-09-18T06:30:55;99784.94;;;19.58;80.25
75991;BME280;64673;52.276;10.560;2023-09-18T06:33:20;99782.28;;;19.61;80.81
75991;BME280;64673;52.276;10.560;2023-09-18T06:35:45;99765.00;;;19.57;79.58
75991;BME280;64673;52.276;10.560;2023-09-18T06:38:11;99762.47;;;19.64;80.16
75991;BME280;64673;52.276;10.560;2023-09-18T06:40:39;99751.63;;;19.68;79.16
75991;BME280;64673;52.276;10.560;2023-09-18T06:43:04;99742.69;;;19.71;79.71
75991;BME280;64673;52.276;10.560;2023-09-18T06:45:30;99729.63;;;19.64;80.22
75991;BME280;64673;52.276;10.560;2023-09-18T06:47:55;99727.53;;;19.73;80.50
75991;BME280;64673;52.276;10.560;2023-09-18T06:50:20;99714.97;;;19.72;80.05
75991;BME280;64673;52.276;10.560;2023-09-18T06:52:46;99719.41;;;19.77;81.68
75991;BME280;64673;52.276;10.560;2023-09-18T06:55:11;99708.91;;;19.95;80.13
75991;BME280;64673;52.276;10.560;2023-09-18T06:57:37;99702.84;;;20.01;79.72
75991;BME280;64673;52.276;10.560;2023-09-18T07:00:02;99698.44;;;20.13;78.64
75991;BME280;64673;52.276;10.560;2023-09-18T07:02:30;99670.25;;;20.12;79.98
75991;BME280;64673;52.276;10.560;2023-09-18T07:04:55;99666.69;;;20.27;79.06
75991;BME280;64673;52.276;10.560;2023-09-18T07:07:20;99669.97;;;20.33;79.01
75991;BME280;64673;52.276;10.560;2023-09-18T07:09:50;99669.34;;;20.39;78.92
75991;BME280;64673;52.276;10.560;2023-09-18T07:12:16;99675.78;;;20.47;78.12
75991;BME280;64673;52.276;10.560;2023-09-18T07:14:47;99668.56;;;20.39;79.53
75991;BME280;64673;52.276;10.560;2023-09-18T07:17:12;99670.75;;;20.33;80.43
75991;BME280;64673;52.276;10.560;2023-09-18T07:19:38;99679.94;;;20.25;81.17
75991;BME280;64673;52.276;10.560;2023-09-18T07:22:04;99672.88;;;20.24;80.68
75991;BME280;64673;52.276;10.560;2023-09-18T07:24:29;99688.59;;;20.27;80.46
75991;BME280;64673;52.276;10.560;2023-09-18T07:26:54;99670.41;;;20.19;79.77
75991;BME280;64673;52.276;10.560;2023-09-18T07:29:20;99695.25;;;20.42;78.10
75991;BME280;64673;52.276;10.560;2023-09-18T07:31:46;99703.81;;;20.40;78.02
75991;BME280;64673;52.276;10.560;2023-09-18T07:34:13;99706.09;;;20.38;77.47
75991;BME280;64673;52.276;10.560;2023-09-18T07:36:38;99701.53;;;20.42;77.57
75991;BME280;64673;52.276;10.560;2023-09-18T07:39:04;99688.78;;;20.50;76.93
75991;BME280;64673;52.276;10.560;2023-09-18T07:41:30;99691.41;;;20.46;77.00
75991;BME280;64673;52.276;10.560;2023-09-18T07:43:56;99702.13;;;20.52;77.52
75991;BME280;64673;52.276;10.560;2023-09-18T07:46:23;99707.84;;;20.46;78.00
75991;BME280;64673;52.276;10.560;2023-09-18T07:48:48;99697.88;;;20.54;77.52
75991;BME280;64673;52.276;10.560;2023-09-18T07:51:14;99695.78;;;20.67;77.51
75991;BME280;64673;52.276;10.560;2023-09-18T07:53:41;99698.97;;;20.69;77.00
75991;BME280;64673;52.276;10.560;2023-09-18T07:56:07;99701.88;;;20.76;76.56
75991;BME280;64673;52.276;10.560;2023-09-18T07:58:32;99705.22;;;20.85;77.05
75991;BME280;64673;52.276;10.560;2023-09-18T08:00:59;99706.88;;;21.09;75.99
75991;BME280;64673;52.276;10.560;2023-09-18T08:03:24;99708.44;;;21.26;76.30
75991;BME280;64673;52.276;10.560;2023-09-18T08:05:53;99712.97;;;21.37;75.81
75991;BME280;64673;52.276;10.560;2023-09-18T08:08:19;99718.72;;;21.51;75.51
75991;BME280;64673;52.276;10.560;2023-09-18T08:10:48;99722.25;;;21.52;75.90
75991;BME280;64673;52.276;10.560;2023-09-18T08:13:13;99716.50;;;21.57;75.95
75991;BME280;64673;52.276;10.560;2023-09-18T08:15:39;99733.66;;;21.54;77.73
75991;BME280;64673;52.276;10.560;2023-09-18T08:18:04;99730.22;;;21.57;75.16
75991;BME280;64673;52.276;10.560;2023-09-18T08:20:30;99713.19;;;21.48;76.59
75991;BME280;64673;52.276;10.560;2023-09-18T08:22:55;99727.47;;;21.57;75.66
75991;BME280;64673;52.276;10.560;2023-09-18T08:25:21;99723.56;;;21.58;75.07
75991;BME280;64673;52.276;10.560;2023-09-18T08:27:46;99736.25;;;21.66;74.73
75991;BME280;64673;52.276;10.560;2023-09-18T08:30:13;99735.38;;;21.81;74.49
75991;BME280;64673;52.276;10.560;2023-09-18T08:32:39;99733.03;;;22.03;74.99
75991;BME280;64673;52.276;10.560;2023-09-18T08:35:06;99748.09;;;22.12;74.72
75991;BME280;64673;52.276;10.560;2023-09-18T08:37:31;99732.06;;;21.95;74.35
75991;BME280;64673;52.276;10.560;2023-09-18T08:39:57;99727.16;;;22.04;73.57
75991;BME280;64673;52.276;10.560;2023-09-18T08:42:23;99730.44;;;21.90;75.19
75991;BME280;64673;52.276;10.560;2023-09-18T08:44:51;99730.72;;;21.85;75.46
75991;BME280;64673;52.276;10.560;2023-09-18T08:47:17;99745.97;;;21.83;74.73
75991;BME280;64673;52.276;10.560;2023-09-18T08:49:45;99740.44;;;21.79;75.33
75991;BME280;64673;52.276;10.560;2023-09-18T08:52:12;99744.63;;;21.73;75.87
75991;BME280;64673;52.276;10.560;2023-09-18T08:54:38;99732.84;;;21.73;76.14
75991;BME280;64673;52.276;10.560;2023-09-18T08:57:03;99728.22;;;21.77;76.04
75991;BME280;64673;52.276;10.560;2023-09-18T08:59:33;99731.41;;;21.79;77.03
75991;BME280;64673;52.276;10.560;2023-09-18T09:02:00;99737.97;;;21.74;76.15
75991;BME280;64673;52.276;10.560;2023-09-18T09:04:25;99730.78;;;21.66;75.56
75991;BME280;64673;52.276;10.560;2023-09-18T09:06:51;99745.84;;;21.76;76.22
75991;BME280;64673;52.276;10.560;2023-09-18T09:09:16;99753.78;;;21.81;76.90
75991;BME280;64673;52.276;10.560;2023-09-18T09:11:50;99748.66;;;21.99;76.26
75991;BME280;64673;52.276;10.560;2023-09-18T09:14:16;99744.84;;;22.07;76.43
75991;BME280;64673;52.276;10.560;2023-09-18T09:16:51;99736.75;;;22.14;76.02
75991;BME280;64673;52.276;10.560;2023-09-18T09:19:17;99737.31;;;22.23;78.65
75991;BME280;64673;52.276;10.560;2023-09-18T09:21:44;99736.94;;;22.24;75.13
75991;BME280;64673;52.276;10.560;2023-09-18T09:24:10;99736.69;;;22.33;76.34
75991;BME280;64673;52.276;10.560;2023-09-18T09:26:40;99737.94;;;22.39;76.78
75991;BME280;64673;52.276;10.560;2023-09-18T09:29:15;99743.44;;;22.39;75.40
75991;BME280;64673;52.276;10.560;2023-09-18T09:31:43;99734.91;;;22.44;76.12
75991;BME280;64673;52.276;10.560;2023-09-18T09:34:09;99735.84;;;22.55;76.71
75991;BME280;64673;52.276;10.560;2023-09-18T09:36:34;99733.63;;;22.64;74.81
75991;BME280;64673;52.276;10.560;2023-09-18T09:38:59;99735.53;;;22.60;77.61
75991;BME280;64673;52.276;10.560;2023-09-18T09:41:26;99729.34;;;22.67;71.95
75991;BME280;64673;52.276;10.560;2023-09-18T09:43:53;99728.97;;;22.69;72.28
75991;BME280;64673;52.276;10.560;2023-09-18T09:46:21;99728.13;;;22.91;69.25
75991;BME280;64673;52.276;10.560;2023-09-18T09:48:59;99716.41;;;22.94;67.51
75991;BME280;64673;52.276;10.560;2023-09-18T09:51:26;99721.94;;;22.97;66.69
75991;BME280;64673;52.276;10.560;2023-09-18T09:53:51;99719.56;;;22.96;68.31
75991;BME280;64673;52.276;10.560;2023-09-18T09:56:18;99735.63;;;22.94;67.66
75991;BME280;64673;52.276;10.560;2023-09-18T09:59:04;99735.44;;;23.10;65.73
75991;BME280;64673;52.276;10.560;2023-09-18T10:01:33;99735.94;;;23.15;65.57
75991;BME280;64673;52.276;10.560;2023-09-18T10:04:22;99727.66;;;23.15;65.69
75991;BME280;64673;52.276;10.560;2023-09-18T10:07:03;99737.47;;;23.13;66.87
75991;BME280;64673;52.276;10.560;2023-09-18T10:09:34;99749.63;;;23.12;66.87
75991;BME280;64673;52.276;10.560;2023-09-18T10:12:00;99745.03;;;23.19;65.69
75991;BME280;64673;52.276;10.560;2023-09-18T10:14:31;99756.03;;;23.19;67.16
75991;BME280;64673;52.276;10.560;2023-09-18T10:16:59;99761.53;;;23.19;67.15
75991;BME280;64673;52.276;10.560;2023-09-18T10:19:37;99750.69;;;23.33;66.48
75991;BME280;64673;52.276;10.560;2023-09-18T10:24:46;99739.84;;;23.14;66.77
75991;BME280;64673;52.276;10.560;2023-09-18T10:27:14;99737.09;;;23.14;67.29
75991;BME280;64673;52.276;10.560;2023-09-18T10:29:41;99741.09;;;23.20;66.60
75991;BME280;64673;52.276;10.560;2023-09-18T10:32:07;99745.94;;;23.00;66.38
75991;BME280;64673;52.276;10.560;2023-09-18T10:34:34;99728.78;;;22.81;67.47
75991;BME280;64673;52.276;10.560;2023-09-18T10:37:00;99734.91;;;22.97;66.81
75991;BME280;64673;52.276;10.560;2023-09-18T10:39:26;99744.84;;;23.05;66.83
75991;BME280;64673;52.276;10.560;2023-09-18T10:41:54;99734.69;;;23.09;67.90
75991;BME280;64673;52.276;10.560;2023-09-18T10:44:21;99733.53;;;23.14;67.60
75991;BME280;64673;52.276;10.560;2023-09-18T10:46:48;99732.81;;;23.17;66.89
75991;BME280;64673;52.276;10.560;2023-09-18T10:49:14;99736.06;;;22.96;67.32
75991;BME280;64673;52.276;10.560;2023-09-18T10:51:39;99719.66;;;23.03;67.31
75991;BME280;64673;52.276;10.560;2023-09-18T10:54:08;99725.28;;;23.14;67.38
75991;BME280;64673;52.276;10.560;2023-09-18T10:56:33;99746.78;;;23.34;67.17
75991;BME280;64673;52.276;10.560;2023-09-18T10:59:00;99753.13;;;23.42;67.36
75991;BME280;64673;52.276;10.560;2023-09-18T11:01:27;99757.09;;;23.45;67.88
75991;BME280;64673;52.276;10.560;2023-09-18T11:03:58;99749.38;;;23.54;66.96
75991;BME280;64673;52.276;10.560;2023-09-18T11:06:25;99749.75;;;23.52;67.34
75991;BME280;64673;52.276;10.560;2023-09-18T11:08:59;99755.53;;;23.44;66.08
75991;BME280;64673;52.276;10.560;2023-09-18T11:11:29;99737.56;;;23.50;67.60
75991;BME280;64673;52.276;10.560;2023-09-18T11:13:58;99773.84;;;23.59;66.23
75991;BME280;64673;52.276;10.560;2023-09-18T11:21:25;99768.09;;;23.41;66.35
75991;BME280;64673;52.276;10.560;2023-09-18T11:24:19;99764.63;;;23.48;65.30
75991;BME280;64673;52.276;10.560;2023-09-18T11:26:46;99776.09;;;23.53;66.44
75991;BME280;64673;52.276;10.560;2023-09-18T11:29:15;99787.44;;;23.48;65.52
75991;BME280;64673;52.276;10.560;2023-09-18T11:36:44;99774.66;;;23.63;65.73
75991;BME280;64673;52.276;10.560;2023-09-18T11:39:11;99755.91;;;23.72;66.07
75991;BME280;64673;52.276;10.560;2023-09-18T11:41:37;99753.53;;;23.74;64.21
75991;BME280;64673;52.276;10.560;2023-09-18T11:46:32;99763.31;;;23.68;65.72
75991;BME280;64673;52.276;10.560;2023-09-18T11:48:59;99760.59;;;23.71;64.72
75991;BME280;64673;52.276;10.560;2023-09-18T11:51:25;99767.41;;;23.81;65.37
75991;BME280;64673;52.276;10.560;2023-09-18T11:53:55;99773.88;;;23.62;65.16
75991;BME280;64673;52.276;10.560;2023-09-18T11:56:21;99763.19;;;23.57;65.37
75991;BME280;64673;52.276;10.560;2023-09-18T11:58:47;99773.00;;;23.55;65.97
75991;BME280;64673;52.276;10.560;2023-09-18T12:01:14;99757.31;;;23.59;65.88
75991;BME280;64673;52.276;10.560;2023-09-18T12:03:41;99747.75;;;23.49;65.93
75991;BME280;64673;52.276;10.560;2023-09-18T12:06:06;99761.03;;;23.44;66.22
75991;BME280;64673;52.276;10.560;2023-09-18T12:08:34;99761.31;;;23.35;64.75
75991;BME280;64673;52.276;10.560;2023-09-18T12:11:00;99760.81;;;23.26;65.98
75991;BME280;64673;52.276;10.560;2023-09-18T12:13:30;99771.97;;;23.36;65.97
75991;BME280;64673;52.276;10.560;2023-09-18T12:16:00;99794.34;;;23.35;67.78
75991;BME280;64673;52.276;10.560;2023-09-18T12:18:27;99789.91;;;23.27;66.12
75991;BME280;64673;52.276;10.560;2023-09-18T12:20:54;99773.69;;;23.48;66.61
75991;BME280;64673;52.276;10.560;2023-09-18T12:23:24;99759.81;;;23.71;65.11
75991;BME280;64673;52.276;10.560;2023-09-18T12:25:58;99745.25;;;23.70;65.95
75991;BME280;64673;52.276;10.560;2023-09-18T12:28:25;99739.16;;;23.54;65.29
75991;BME280;64673;52.276;10.560;2023-09-18T12:30:52;99743.78;;;23.47;66.35
75991;BME280;64673;52.276;10.560;2023-09-18T12:33:21;99756.47;;;23.55;66.36
75991;BME280;64673;52.276;10.560;2023-09-18T12:35:46;99769.69;;;23.46;66.15
75991;BME280;64673;52.276;10.560;2023-09-18T12:38:19;99777.13;;;23.42;65.32
75991;BME280;64673;52.276;10.560;2023-09-18T12:40:53;99775.22;;;23.46;66.34
75991;BME280;64673;52.276;10.560;2023-09-18T12:43:20;99780.63;;;23.39;66.76
75991;BME280;64673;52.276;10.560;2023-09-18T12:45:48;99780.53;;;23.31;66.85
75991;BME280;64673;52.276;10.560;2023-09-18T12:48:14;99782.78;;;23.22;67.02
75991;BME280;64673;52.276;10.560;2023-09-18T12:50:40;99781.19;;;23.21;66.06
75991;BME280;64673;52.276;10.560;2023-09-18T12:53:10;99770.22;;;23.25;67.17
75991;BME280;64673;52.276;10.560;2023-09-18T12:55:36;99741.09;;;23.20;66.61
75991;BME280;64673;52.276;10.560;2023-09-18T12:58:02;99706.53;;;23.23;66.01
75991;BME280;64673;52.276;10.560;2023-09-18T13:00:32;99737.22;;;23.25;67.14